Time;durP1;ratioP1;P1;durP2;ratioP2;P2;SDS_P1;SDS_P2;PMS_P1;PMS_P2;Temp;Humidity;BMP_temperature;BMP_pressure;BME280_temperature;BME280_humidity;BME280_pressure;Samples;Min_cycle;Max_cycle;Signal;HPM_P1;HPM_P2
2022/11/26 00:02:21;;;;;;;;;18.50;16.75;;;;;-147.17;100.00;-15917.19;5047158;28;51573;-47
2022/11/26 00:04:47;;;;;;;;;15.25;14.00;;;;;-147.17;100.00;-15917.19;5038851;28;51117;-44
2022/11/26 00:07:16;;;;;;;;;26.25;24.75;;;;;-147.17;100.00;-15917.19;5053874;28;51199;-45
2022/11/26 00:09:41;;;;;;;;;17.00;16.50;;;;;-147.17;100.00;-15917.19;5053982;28;51047;-45
2022/11/26 00:12:16;;;;;;;;;22.50;20.25;;;;;-147.17;100.00;-15917.19;5053742;28;50981;-46
2022/11/26 00:14:42;;;;;;;;;21.50;15.25;;;;;-147.17;100.00;-15917.19;5054006;28;51063;-47
2022/11/26 00:17:12;;;;;;;;;17.75;14.50;;;;;-147.17;100.00;-15917.19;5052497;28;51069;-45
2022/11/26 00:19:38;;;;;;;;;28.75;23.00;;;;;-147.17;100.00;-15917.19;5048656;28;51097;-46
2022/11/26 00:22:03;;;;;;;;;13.75;13.50;;;;;-147.17;100.00;-15917.19;5052622;28;51885;-47
2022/11/26 00:24:29;;;;;;;;;13.75;12.75;;;;;-147.17;100.00;-15917.19;5051226;28;51086;-45
2022/11/26 00:26:56;;;;;;;;;14.50;14.50;;;;;-147.17;100.00;-15917.19;5054374;28;51100;-47
2022/11/26 00:29:21;;;;;;;;;20.50;16.75;;;;;-147.17;100.00;-15917.19;5035673;28;51507;-44
2022/11/26 00:31:47;;;;;;;;;44.25;38.25;;;;;-147.17;100.00;-15917.19;5053242;28;52197;-44
2022/11/26 00:34:12;;;;;;;;;20.75;17.75;;;;;-147.17;100.00;-15917.19;5050812;28;51291;-44
2022/11/26 00:36:37;;;;;;;;;23.00;18.75;;;;;-147.17;100.00;-15917.19;5041105;28;51265;-45
2022/11/26 00:39:08;;;;;;;;;21.50;20.25;;;;;-147.17;100.00;-15917.19;5054109;28;51163;-45
2022/11/26 00:41:37;;;;;;;;;13.75;11.50;;;;;-147.17;100.00;-15917.19;5049979;28;51315;-45
2022/11/26 00:44:03;;;;;;;;;17.75;15.75;;;;;-147.17;100.00;-15917.19;5051038;28;51392;-46
2022/11/26 00:46:28;;;;;;;;;26.00;23.50;;;;;-147.17;100.00;-15917.19;5051966;28;51083;-45
2022/11/26 00:48:53;;;;;;;;;20.00;17.75;;;;;-147.17;100.00;-15917.19;5054152;28;51188;-45
2022/11/26 00:51:23;;;;;;;;;17.75;16.50;;;;;-147.17;100.00;-15917.19;5051915;28;51799;-46
2022/11/26 00:53:51;;;;;;;;;18.50;14.75;;;;;-147.17;100.00;-15917.19;5051511;28;51123;-47
2022/11/26 00:56:19;;;;;;;;;13.75;12.75;;;;;-147.17;100.00;-15917.19;5053984;28;51153;-47
2022/11/26 00:58:46;;;;;;;;;19.25;18.50;;;;;-147.17;100.00;-15917.19;5053973;28;51384;-44
2022/11/26 01:01:15;;;;;;;;;12.00;11.50;;;;;-147.17;100.00;-15917.19;5049990;28;51092;-46
2022/11/26 01:03:41;;;;;;;;;20.00;19.00;;;;;-147.17;100.00;-15917.19;5047260;28;51221;-45
2022/11/26 01:06:13;;;;;;;;;20.25;19.75;;;;;-147.17;100.00;-15917.19;5054085;28;51061;-45
2022/11/26 01:08:38;;;;;;;;;24.50;19.25;;;;;-147.17;100.00;-15917.19;5052450;28;51317;-46
2022/11/26 01:11:04;;;;;;;;;23.25;21.25;;;;;-147.17;100.00;-15917.19;5050043;28;51736;-45
2022/11/26 01:13:31;;;;;;;;;19.75;17.50;;;;;-147.17;100.00;-15917.19;5053859;28;51014;-45
2022/11/26 01:15:58;;;;;;;;;20.75;18.75;;;;;-147.17;100.00;-15917.19;5049858;28;51294;-46
2022/11/26 01:18:24;;;;;;;;;18.50;15.25;;;;;-147.17;100.00;-15917.19;5053351;28;51235;-47
2022/11/26 01:20:50;;;;;;;;;21.50;19.50;;;;;-147.17;100.00;-15917.19;5050429;28;52238;-45
2022/11/26 01:23:17;;;;;;;;;23.25;21.75;;;;;-147.17;100.00;-15917.19;5049463;28;51845;-45
2022/11/26 01:25:44;;;;;;;;;20.00;17.75;;;;;-147.17;100.00;-15917.19;5053258;28;51201;-45
2022/11/26 01:28:11;;;;;;;;;19.00;15.25;;;;;-147.17;100.00;-15917.19;5052074;28;51432;-45
2022/11/26 01:30:38;;;;;;;;;27.25;24.50;;;;;-147.17;100.00;-15917.19;5052663;28;51822;-45
2022/11/26 01:33:03;;;;;;;;;22.00;22.00;;;;;-147.17;100.00;-15917.19;5050949;28;51202;-45
2022/11/26 01:35:28;;;;;;;;;27.75;26.00;;;;;-147.17;100.00;-15917.19;5051141;28;51141;-45
2022/11/26 01:37:55;;;;;;;;;31.75;28.75;;;;;-147.17;100.00;-15917.19;5051517;28;50978;-45
2022/11/26 01:40:27;;;;;;;;;33.00;31.50;;;;;-147.17;100.00;-15917.19;5052654;28;51138;-45
2022/11/26 01:43:03;;;;;;;;;33.75;30.75;;;;;-147.17;100.00;-15917.19;5050121;28;51226;-44
2022/11/26 01:45:28;;;;;;;;;33.50;32.75;;;;;-147.17;100.00;-15917.19;5050499;28;54357;-46
2022/11/26 01:47:53;;;;;;;;;36.50;32.25;;;;;-147.17;100.00;-15917.19;5040500;28;51326;-44
2022/11/26 01:50:28;;;;;;;;;42.00;36.75;;;;;-147.17;100.00;-15917.19;5051058;28;52043;-44
2022/11/26 01:53:04;;;;;;;;;34.25;33.25;;;;;-147.17;100.00;-15917.19;5052098;28;50911;-45
2022/11/26 01:55:35;;;;;;;;;39.25;35.00;;;;;-147.17;100.00;-15917.19;5048400;28;50922;-45
2022/11/26 01:58:02;;;;;;;;;37.75;32.50;;;;;-147.17;100.00;-15917.19;5051740;28;50977;-45
2022/11/26 02:00:28;;;;;;;;;35.00;33.25;;;;;-147.17;100.00;-15917.19;5049899;28;53486;-45
2022/11/26 02:02:53;;;;;;;;;35.50;33.75;;;;;-147.17;100.00;-15917.19;5046382;28;51171;-45
2022/11/26 02:05:23;;;;;;;;;35.50;32.25;;;;;-147.17;100.00;-15917.19;5049887;28;50831;-46
2022/11/26 02:07:51;;;;;;;;;38.50;33.00;;;;;-147.17;100.00;-15917.19;5033747;28;51140;-44
2022/11/26 02:10:17;;;;;;;;;35.50;33.75;;;;;-147.17;100.00;-15917.19;5050859;28;52026;-45
2022/11/26 02:12:43;;;;;;;;;33.75;30.00;;;;;-147.17;100.00;-15917.19;5048623;28;51224;-45
2022/11/26 02:15:10;;;;;;;;;38.50;36.25;;;;;-147.17;100.00;-15917.19;5030943;28;51473;-45
2022/11/26 02:17:42;;;;;;;;;38.75;35.50;;;;;-147.17;100.00;-15917.19;5050665;28;50921;-45
2022/11/26 02:20:29;;;;;;;;;37.25;35.00;;;;;-147.17;100.00;-15917.19;5044935;28;51137;-44
2022/11/26 02:23:03;;;;;;;;;37.25;35.50;;;;;-147.17;100.00;-15917.19;5051074;28;51131;-48
2022/11/26 02:25:53;;;;;;;;;36.50;36.00;;;;;-147.17;100.00;-15917.19;5046858;28;52021;-44
2022/11/26 02:28:18;;;;;;;;;42.50;37.25;;;;;-147.17;100.00;-15917.19;5052568;28;50916;-44
2022/11/26 02:31:01;;;;;;;;;38.00;36.00;;;;;-147.17;100.00;-15917.19;5051899;28;52558;-46
2022/11/26 02:33:51;;;;;;;;;35.25;33.50;;;;;-147.17;100.00;-15917.19;5049150;28;51188;-45
2022/11/26 02:36:25;;;;;;;;;38.50;35.75;;;;;-147.17;100.00;-15917.19;5051434;28;51134;-45
2022/11/26 02:38:50;;;;;;;;;39.50;35.50;;;;;-147.17;100.00;-15917.19;5052247;28;51143;-45
2022/11/26 02:41:15;;;;;;;;;40.00;37.25;;;;;-147.17;100.00;-15917.19;5051285;28;51066;-46
2022/11/26 02:43:41;;;;;;;;;40.00;36.75;;;;;-147.17;100.00;-15917.19;5048770;28;51175;-46
2022/11/26 02:46:14;;;;;;;;;45.25;35.50;;;;;-147.17;100.00;-15917.19;5051079;28;51237;-48
2022/11/26 02:48:43;;;;;;;;;45.75;39.00;;;;;-147.17;100.00;-15917.19;5052096;28;51127;-45
2022/11/26 02:51:17;;;;;;;;;41.75;37.75;;;;;-147.17;100.00;-15917.19;5050529;28;51160;-46
2022/11/26 02:53:47;;;;;;;;;46.00;40.00;;;;;-147.17;100.00;-15917.19;5048802;28;51202;-46
2022/11/26 02:56:20;;;;;;;;;37.75;36.25;;;;;-147.17;100.00;-15917.19;5050972;28;51210;-46
2022/11/26 02:58:47;;;;;;;;;40.50;34.75;;;;;-147.17;100.00;-15917.19;5052423;28;51180;-48
2022/11/26 03:01:27;;;;;;;;;45.25;38.75;;;;;-147.17;100.00;-15917.19;5048838;28;51182;-45
2022/11/26 03:03:57;;;;;;;;;44.00;39.00;;;;;-147.17;100.00;-15917.19;5050009;28;51100;-47
2022/11/26 03:06:26;;;;;;;;;33.75;33.00;;;;;-147.17;100.00;-15917.19;5050692;28;51196;-45
2022/11/26 03:08:53;;;;;;;;;42.50;39.00;;;;;-147.17;100.00;-15917.19;5053585;28;50997;-45
2022/11/26 03:11:19;;;;;;;;;40.50;33.25;;;;;-147.17;100.00;-15917.19;5053267;28;52424;-46
2022/11/26 03:13:45;;;;;;;;;43.25;39.00;;;;;-147.17;100.00;-15917.19;5053704;28;51211;-45
2022/11/26 03:16:11;;;;;;;;;38.50;34.75;;;;;-147.17;100.00;-15917.19;5046392;28;51199;-45
2022/11/26 03:18:36;;;;;;;;;43.00;40.25;;;;;-147.17;100.00;-15917.19;5030779;28;51003;-45
2022/11/26 03:21:02;;;;;;;;;41.75;38.25;;;;;-147.17;100.00;-15917.19;5053692;28;51121;-46
2022/11/26 03:23:27;;;;;;;;;45.00;40.00;;;;;-147.17;100.00;-15917.19;5035610;28;51414;-45
2022/11/26 03:25:52;;;;;;;;;42.25;39.00;;;;;-147.17;100.00;-15917.19;5037678;28;51129;-47
2022/11/26 03:28:18;;;;;;;;;33.75;30.00;;;;;-147.17;100.00;-15917.19;5056196;28;51367;-46
2022/11/26 03:30:43;;;;;;;;;13.00;11.75;;;;;-147.17;100.00;-15917.19;5052820;28;52236;-45
2022/11/26 03:33:09;;;;;;;;;39.50;36.00;;;;;-147.17;100.00;-15917.19;5054614;28;51122;-47
2022/11/26 03:35:35;;;;;;;;;34.75;32.50;;;;;-147.17;100.00;-15917.19;5057208;28;51369;-47
2022/11/26 03:38:00;;;;;;;;;45.50;37.75;;;;;-147.17;100.00;-15917.19;5056888;28;51375;-46
2022/11/26 03:40:25;;;;;;;;;40.75;37.50;;;;;-147.17;100.00;-15917.19;5051764;28;53878;-48
2022/11/26 03:42:51;;;;;;;;;41.00;37.75;;;;;-147.17;100.00;-15917.19;5054252;28;51183;-47
2022/11/26 03:45:16;;;;;;;;;40.50;37.25;;;;;-147.17;100.00;-15917.19;5053280;28;51381;-45
2022/11/26 03:47:41;;;;;;;;;35.75;35.00;;;;;-147.17;100.00;-15917.19;5023343;28;51075;-47
2022/11/26 03:50:07;;;;;;;;;38.75;36.75;;;;;-147.17;100.00;-15917.19;5052846;28;51830;-49
2022/11/26 03:52:33;;;;;;;;;34.75;33.50;;;;;-147.17;100.00;-15917.19;5036481;28;51307;-47
2022/11/26 03:54:58;;;;;;;;;33.75;32.00;;;;;-147.17;100.00;-15917.19;5052353;28;51651;-45
2022/11/26 03:57:24;;;;;;;;;32.75;32.25;;;;;-147.17;100.00;-15917.19;5053693;28;51417;-45
2022/11/26 03:59:49;;;;;;;;;41.50;37.50;;;;;-147.17;100.00;-15917.19;5051506;28;51734;-45
2022/11/26 04:02:14;;;;;;;;;33.50;31.50;;;;;-147.17;100.00;-15917.19;5052436;28;52195;-45
2022/11/26 04:04:40;;;;;;;;;36.50;33.00;;;;;-147.17;100.00;-15917.19;5052526;28;51788;-45
2022/11/26 04:07:05;;;;;;;;;32.00;28.00;;;;;-147.17;100.00;-15917.19;5053434;28;51102;-45
2022/11/26 04:09:30;;;;;;;;;39.50;37.50;;;;;-147.17;100.00;-15917.19;5052436;28;51795;-45
2022/11/26 04:11:56;;;;;;;;;38.25;37.00;;;;;-147.17;100.00;-15917.19;5052390;28;51148;-44
2022/11/26 04:14:21;;;;;;;;;38.25;36.25;;;;;-147.17;100.00;-15917.19;5051668;28;52473;-44
2022/11/26 04:16:46;;;;;;;;;35.00;32.75;;;;;-147.17;100.00;-15917.19;5050697;28;53052;-46
2022/11/26 04:19:12;;;;;;;;;39.25;33.75;;;;;-147.17;100.00;-15917.19;5052297;28;51901;-46
2022/11/26 04:21:37;;;;;;;;;38.25;35.25;;;;;-147.17;100.00;-15917.19;5051533;28;51311;-45
2022/11/26 04:24:03;;;;;;;;;35.75;35.50;;;;;-147.17;100.00;-15917.19;5042503;28;51176;-46
2022/11/26 04:26:28;;;;;;;;;38.50;36.75;;;;;-147.17;100.00;-15917.19;5052368;28;51000;-46
2022/11/26 04:28:53;;;;;;;;;27.25;26.00;;;;;-147.17;100.00;-15917.19;5052129;28;51713;-49
2022/11/26 04:31:19;;;;;;;;;29.25;28.50;;;;;-147.17;100.00;-15917.19;5051992;28;55347;-47
2022/11/26 04:33:44;;;;;;;;;28.25;25.75;;;;;-147.17;100.00;-15917.19;5052123;28;51168;-49
2022/11/26 04:36:10;;;;;;;;;34.75;29.25;;;;;-147.17;100.00;-15917.19;5054308;28;51033;-46
2022/11/26 04:38:36;;;;;;;;;32.50;29.50;;;;;-147.17;100.00;-15917.19;5041590;28;53192;-46
2022/11/26 04:41:01;;;;;;;;;35.75;35.50;;;;;-147.17;100.00;-15917.19;5053058;28;51242;-47
2022/11/26 04:43:27;;;;;;;;;36.75;35.25;;;;;-147.17;100.00;-15917.19;5052647;28;51788;-46
2022/11/26 04:45:52;;;;;;;;;38.50;35.00;;;;;-147.17;100.00;-15917.19;5052016;28;51088;-45
2022/11/26 04:48:18;;;;;;;;;29.00;28.25;;;;;-147.17;100.00;-15917.19;5050487;28;52069;-47
2022/11/26 04:50:43;;;;;;;;;34.50;33.00;;;;;-147.17;100.00;-15917.19;5051096;28;51165;-46
2022/11/26 04:53:09;;;;;;;;;35.25;31.25;;;;;-147.17;100.00;-15917.19;5035408;28;51326;-46
2022/11/26 04:55:34;;;;;;;;;33.50;31.25;;;;;-147.17;100.00;-15917.19;5052707;28;51159;-45
2022/11/26 04:58:00;;;;;;;;;30.50;26.25;;;;;-147.17;100.00;-15917.19;5051189;28;51899;-47
2022/11/26 05:00:25;;;;;;;;;41.00;35.75;;;;;-147.17;100.00;-15917.19;5051349;28;51039;-47
2022/11/26 05:02:51;;;;;;;;;30.25;27.75;;;;;-147.17;100.00;-15917.19;5047893;28;51180;-48
2022/11/26 05:05:16;;;;;;;;;33.25;29.50;;;;;-147.17;100.00;-15917.19;5048010;28;52477;-47
2022/11/26 05:07:41;;;;;;;;;36.00;34.00;;;;;-147.17;100.00;-15917.19;5048402;28;51864;-46
2022/11/26 05:10:07;;;;;;;;;37.00;36.25;;;;;-147.17;100.00;-15917.19;5047686;28;51161;-47
2022/11/26 05:12:33;;;;;;;;;34.75;31.00;;;;;-147.17;100.00;-15917.19;5049388;28;51163;-47
2022/11/26 05:14:59;;;;;;;;;33.50;32.50;;;;;-147.17;100.00;-15917.19;5047812;28;51172;-47
2022/11/26 05:17:24;;;;;;;;;30.75;29.00;;;;;-147.17;100.00;-15917.19;5049502;28;51917;-46
2022/11/26 05:19:49;;;;;;;;;36.25;32.75;;;;;-147.17;100.00;-15917.19;5046734;28;51013;-46
2022/11/26 05:22:15;;;;;;;;;34.00;33.00;;;;;-147.17;100.00;-15917.19;5049265;28;51319;-45
2022/11/26 05:24:40;;;;;;;;;35.75;30.00;;;;;-147.17;100.00;-15917.19;5044441;28;51311;-46
2022/11/26 05:27:06;;;;;;;;;26.25;24.75;;;;;-147.17;100.00;-15917.19;5030570;28;52899;-45
2022/11/26 05:29:32;;;;;;;;;36.75;32.75;;;;;-147.17;100.00;-15917.19;5050082;28;51150;-45
2022/11/26 05:31:57;;;;;;;;;34.25;31.50;;;;;-147.17;100.00;-15917.19;5050612;28;51139;-45
2022/11/26 05:34:22;;;;;;;;;30.75;28.50;;;;;-147.17;100.00;-15917.19;5048552;28;51043;-45
2022/11/26 05:36:48;;;;;;;;;32.50;31.25;;;;;-147.17;100.00;-15917.19;5047309;28;51909;-47
2022/11/26 05:39:13;;;;;;;;;41.00;33.25;;;;;-147.17;100.00;-15917.19;5050200;28;51112;-46
2022/11/26 05:41:38;;;;;;;;;35.25;30.25;;;;;-147.17;100.00;-15917.19;5049452;28;51322;-45
2022/11/26 05:44:04;;;;;;;;;40.25;35.25;;;;;-147.17;100.00;-15917.19;5050071;28;51367;-46
2022/11/26 05:46:29;;;;;;;;;36.25;30.50;;;;;-147.17;100.00;-15917.19;5048838;28;52078;-45
2022/11/26 05:48:54;;;;;;;;;30.25;29.25;;;;;-147.17;100.00;-15917.19;5052108;28;51063;-46
2022/11/26 05:51:20;;;;;;;;;31.50;31.25;;;;;-147.17;100.00;-15917.19;5049534;28;50934;-45
2022/11/26 05:53:45;;;;;;;;;35.50;33.75;;;;;-147.17;100.00;-15917.19;5046550;28;51421;-46
2022/11/26 05:56:10;;;;;;;;;41.50;35.75;;;;;-147.17;100.00;-15917.19;5047710;28;52470;-44
2022/11/26 05:58:36;;;;;;;;;29.25;28.50;;;;;-147.17;100.00;-15917.19;5052771;28;51095;-47
2022/11/26 06:01:08;;;;;;;;;29.00;26.50;;;;;-147.17;100.00;-15917.19;5054451;28;50981;-46
2022/11/26 06:03:35;;;;;;;;;30.25;28.75;;;;;-147.17;100.00;-15917.19;5050679;28;51076;-46
2022/11/26 06:06:01;;;;;;;;;32.50;30.75;;;;;-147.17;100.00;-15917.19;5038778;28;52425;-46
2022/11/26 06:08:26;;;;;;;;;31.75;27.25;;;;;-147.17;100.00;-15917.19;5049592;28;50944;-46
2022/11/26 06:10:52;;;;;;;;;26.75;23.50;;;;;-147.17;100.00;-15917.19;5047468;28;50951;-47
2022/11/26 06:13:18;;;;;;;;;32.00;31.00;;;;;-147.17;100.00;-15917.19;5047116;28;51332;-46
2022/11/26 06:15:43;;;;;;;;;37.50;35.00;;;;;-147.17;100.00;-15917.19;5047231;28;51240;-45
2022/11/26 06:18:08;;;;;;;;;33.25;30.00;;;;;-147.17;100.00;-15917.19;5050368;28;51040;-46
2022/11/26 06:20:34;;;;;;;;;31.50;27.25;;;;;-147.17;100.00;-15917.19;5044910;28;51119;-49
2022/11/26 06:22:59;;;;;;;;;27.00;26.25;;;;;-147.17;100.00;-15917.19;5046185;28;51163;-46
2022/11/26 06:25:25;;;;;;;;;32.00;32.00;;;;;-147.17;100.00;-15917.19;5046927;28;51200;-46
2022/11/26 06:27:51;;;;;;;;;32.75;30.25;;;;;-147.17;100.00;-15917.19;5049605;28;52385;-45
2022/11/26 06:30:17;;;;;;;;;33.25;30.50;;;;;-147.17;100.00;-15917.19;5046654;28;54341;-45
2022/11/26 06:32:42;;;;;;;;;32.75;30.50;;;;;-147.17;100.00;-15917.19;5048260;28;51303;-45
2022/11/26 06:35:08;;;;;;;;;28.75;28.50;;;;;-147.17;100.00;-15917.19;5029189;28;53914;-47
2022/11/26 06:37:34;;;;;;;;;29.50;28.75;;;;;-147.17;100.00;-15917.19;5050447;28;51234;-46
2022/11/26 06:39:59;;;;;;;;;30.75;27.50;;;;;-147.17;100.00;-15917.19;5047278;28;51396;-45
2022/11/26 06:42:24;;;;;;;;;31.00;28.25;;;;;-147.17;100.00;-15917.19;5047974;28;51044;-46
2022/11/26 06:44:50;;;;;;;;;29.50;27.75;;;;;-147.17;100.00;-15917.19;5049765;28;51373;-46
2022/11/26 06:47:15;;;;;;;;;31.75;31.25;;;;;-147.17;100.00;-15917.19;5048732;28;51294;-48
2022/11/26 06:49:41;;;;;;;;;29.50;27.50;;;;;-147.17;100.00;-15917.19;5048043;28;51142;-45
2022/11/26 06:52:06;;;;;;;;;29.00;26.25;;;;;-147.17;100.00;-15917.19;5050436;28;51194;-45
2022/11/26 06:54:32;;;;;;;;;28.25;25.75;;;;;-147.17;100.00;-15917.19;5049971;28;52026;-48
2022/11/26 06:56:58;;;;;;;;;28.75;26.75;;;;;-147.17;100.00;-15917.19;5054077;28;50923;-47
2022/11/26 06:59:23;;;;;;;;;29.50;27.00;;;;;-147.17;100.00;-15917.19;5047498;28;51370;-49
2022/11/26 07:01:48;;;;;;;;;28.00;24.00;;;;;-147.17;100.00;-15917.19;5050114;28;51456;-46
2022/11/26 07:04:14;;;;;;;;;30.50;28.25;;;;;-147.17;100.00;-15917.19;5047797;28;51972;-44
2022/11/26 07:06:39;;;;;;;;;30.75;29.75;;;;;-147.17;100.00;-15917.19;5054161;28;51109;-45
2022/11/26 07:09:08;;;;;;;;;23.25;23.00;;;;;-147.17;100.00;-15917.19;5050706;28;51133;-48
2022/11/26 07:11:34;;;;;;;;;25.25;24.50;;;;;-147.17;100.00;-15917.19;5050095;28;51180;-45
2022/11/26 07:14:00;;;;;;;;;33.75;30.25;;;;;-147.17;100.00;-15917.19;5046652;28;51153;-45
2022/11/26 07:16:26;;;;;;;;;24.75;23.25;;;;;-147.17;100.00;-15917.19;5053105;28;51048;-47
2022/11/26 07:18:53;;;;;;;;;33.50;31.00;;;;;-147.17;100.00;-15917.19;5050881;28;51164;-46
2022/11/26 07:21:19;;;;;;;;;29.25;28.50;;;;;-147.17;100.00;-15917.19;5050145;28;51071;-44
2022/11/26 07:23:46;;;;;;;;;29.75;29.25;;;;;-147.17;100.00;-15917.19;5045474;28;51894;-47
2022/11/26 07:26:13;;;;;;;;;29.50;27.50;;;;;-147.17;100.00;-15917.19;5053815;28;51172;-47
2022/11/26 07:28:38;;;;;;;;;34.75;30.25;;;;;-147.17;100.00;-15917.19;5051511;28;51095;-45
2022/11/26 07:31:09;;;;;;;;;34.50;30.75;;;;;-147.17;100.00;-15917.19;5049233;28;51249;-45
2022/11/26 07:33:34;;;;;;;;;30.50;27.25;;;;;-147.17;100.00;-15917.19;5033126;28;53034;-46
2022/11/26 07:36:01;;;;;;;;;31.00;28.00;;;;;-147.17;100.00;-15917.19;5050467;28;51134;-46
2022/11/26 07:38:27;;;;;;;;;28.00;26.50;;;;;-147.17;100.00;-15917.19;5045641;28;51207;-48
2022/11/26 07:40:53;;;;;;;;;26.00;26.00;;;;;-147.17;100.00;-15917.19;5048266;28;51154;-44
2022/11/26 07:43:19;;;;;;;;;32.75;31.00;;;;;-147.17;100.00;-15917.19;5048180;28;52153;-44
2022/11/26 07:45:44;;;;;;;;;32.00;30.75;;;;;-147.17;100.00;-15917.19;5051958;28;51025;-44
2022/11/26 07:48:10;;;;;;;;;31.00;27.50;;;;;-147.17;100.00;-15917.19;5049201;28;51036;-45
2022/11/26 07:50:35;;;;;;;;;31.00;28.00;;;;;-147.17;100.00;-15917.19;5049269;28;52425;-46
2022/11/26 07:53:01;;;;;;;;;23.50;22.00;;;;;-147.17;100.00;-15917.19;5047000;28;51962;-46
2022/11/26 07:55:26;;;;;;;;;31.25;26.50;;;;;-147.17;100.00;-15917.19;5049813;28;51179;-45
2022/11/26 07:57:52;;;;;;;;;25.75;25.75;;;;;-147.17;100.00;-15917.19;5048741;28;50969;-46
2022/11/26 08:00:18;;;;;;;;;29.25;26.00;;;;;-147.17;100.00;-15917.19;5046806;28;51443;-46
2022/11/26 08:02:43;;;;;;;;;22.00;22.00;;;;;-147.17;100.00;-15917.19;5045933;28;52217;-44
2022/11/26 08:05:08;;;;;;;;;23.50;22.25;;;;;-147.17;100.00;-15917.19;5050099;28;51062;-44
2022/11/26 08:07:35;;;;;;;;;25.00;23.00;;;;;-147.17;100.00;-15917.19;5047399;28;51399;-47
2022/11/26 08:10:01;;;;;;;;;28.25;25.25;;;;;-147.17;100.00;-15917.19;5050107;28;51088;-44
2022/11/26 08:12:26;;;;;;;;;26.25;25.25;;;;;-147.17;100.00;-15917.19;5052304;28;52473;-46
2022/11/26 08:14:52;;;;;;;;;22.25;21.75;;;;;-147.17;100.00;-15917.19;5048788;28;51273;-45
2022/11/26 08:17:17;;;;;;;;;29.50;24.50;;;;;-147.17;100.00;-15917.19;5031028;28;51151;-44
2022/11/26 08:19:42;;;;;;;;;27.50;23.75;;;;;-147.17;100.00;-15917.19;5048208;28;51282;-45
2022/11/26 08:22:08;;;;;;;;;27.50;24.50;;;;;-147.17;100.00;-15917.19;5052142;28;51147;-46
2022/11/26 08:24:34;;;;;;;;;24.75;23.00;;;;;-147.17;100.00;-15917.19;5041568;28;51199;-47
2022/11/26 08:27:00;;;;;;;;;28.25;26.50;;;;;-147.17;100.00;-15917.19;5041003;28;51283;-44
2022/11/26 08:29:25;;;;;;;;;29.25;28.00;;;;;-147.17;100.00;-15917.19;5051598;28;51176;-46
2022/11/26 08:31:51;;;;;;;;;27.25;26.50;;;;;-147.17;100.00;-15917.19;5045522;28;52241;-49
2022/11/26 08:34:16;;;;;;;;;25.75;23.25;;;;;-147.17;100.00;-15917.19;5034691;28;51161;-45
2022/11/26 08:36:43;;;;;;;;;28.00;24.50;;;;;-147.17;100.00;-15917.19;5049509;28;51289;-47
2022/11/26 08:39:12;;;;;;;;;28.00;27.00;;;;;-147.17;100.00;-15917.19;5049815;28;51232;-47
2022/11/26 08:41:37;;;;;;;;;28.75;26.75;;;;;-147.17;100.00;-15917.19;5045392;28;51925;-47
2022/11/26 08:44:03;;;;;;;;;27.75;26.50;;;;;-147.17;100.00;-15917.19;5033132;28;51338;-45
2022/11/26 08:46:28;;;;;;;;;28.00;27.75;;;;;-147.17;100.00;-15917.19;5048390;28;51576;-44
2022/11/26 08:48:55;;;;;;;;;28.00;26.75;;;;;-147.17;100.00;-15917.19;5062875;28;51318;-44
2022/11/26 08:51:21;;;;;;;;;27.25;23.75;;;;;-147.17;100.00;-15917.19;5047279;28;52444;-47
2022/11/26 08:53:46;;;;;;;;;30.25;28.25;;;;;-147.17;100.00;-15917.19;5022163;28;51274;-47
2022/11/26 08:56:12;;;;;;;;;32.50;28.00;;;;;-147.17;100.00;-15917.19;5051287;28;51295;-46
2022/11/26 08:58:41;;;;;;;;;33.00;28.75;;;;;-147.17;100.00;-15917.19;5046928;28;50851;-47
2022/11/26 09:01:13;;;;;;;;;28.75;27.75;;;;;-147.17;100.00;-15917.19;5026236;28;51526;-48
2022/11/26 09:03:38;;;;;;;;;28.00;27.25;;;;;-147.17;100.00;-15917.19;5027286;28;51052;-45
2022/11/26 09:06:06;;;;;;;;;31.25;30.25;;;;;-147.17;100.00;-15917.19;5045078;28;51552;-46
2022/11/26 09:08:33;;;;;;;;;32.00;29.50;;;;;-147.17;100.00;-15917.19;5046534;28;51407;-45
2022/11/26 09:10:59;;;;;;;;;36.75;33.00;;;;;-147.17;100.00;-15917.19;5050303;28;52041;-46
2022/11/26 09:13:24;;;;;;;;;32.50;29.25;;;;;-147.17;100.00;-15917.19;5049218;28;50910;-45
2022/11/26 09:15:50;;;;;;;;;27.25;25.00;;;;;-147.17;100.00;-15917.19;5050854;28;50941;-45
2022/11/26 09:18:17;;;;;;;;;25.75;23.50;;;;;-147.17;100.00;-15917.19;5049490;28;51495;-46
2022/11/26 09:20:42;;;;;;;;;15.00;13.00;;;;;-147.17;100.00;-15917.19;5049122;28;52258;-46
2022/11/26 09:23:08;;;;;;;;;27.75;27.25;;;;;-147.17;100.00;-15917.19;5049089;28;51194;-45
2022/11/26 09:25:36;;;;;;;;;31.50;28.75;;;;;-147.17;100.00;-15917.19;5048912;28;51583;-45
2022/11/26 09:28:03;;;;;;;;;27.50;24.00;;;;;-147.17;100.00;-15917.19;5049065;28;51107;-45
2022/11/26 09:30:28;;;;;;;;;31.00;29.50;;;;;-147.17;100.00;-15917.19;5029657;28;52453;-45
2022/11/26 09:32:53;;;;;;;;;32.25;30.00;;;;;-147.17;100.00;-15917.19;5048236;28;51147;-46
2022/11/26 09:35:19;;;;;;;;;29.25;28.25;;;;;-147.17;100.00;-15917.19;5051799;28;51147;-49
2022/11/26 09:37:44;;;;;;;;;31.25;30.00;;;;;-147.17;100.00;-15917.19;5049834;28;50943;-47
2022/11/26 09:40:17;;;;;;;;;27.25;25.75;;;;;-147.17;100.00;-15917.19;5048568;28;51310;-47
2022/11/26 09:43:00;;;;;;;;;33.00;29.00;;;;;-147.17;100.00;-15917.19;5049493;28;51258;-46
2022/11/26 09:45:41;;;;;;;;;37.25;31.00;;;;;-147.17;100.00;-15917.19;5051884;28;51072;-46
2022/11/26 09:48:17;;;;;;;;;35.00;33.50;;;;;-147.17;100.00;-15917.19;5048492;28;51184;-46
2022/11/26 09:50:45;;;;;;;;;31.25;28.75;;;;;-147.17;100.00;-15917.19;5029774;28;51861;-46
2022/11/26 09:53:18;;;;;;;;;35.75;32.50;;;;;-147.17;100.00;-15917.19;5051344;28;51123;-45
2022/11/26 09:55:48;;;;;;;;;31.75;31.25;;;;;-147.17;100.00;-15917.19;5049828;28;50906;-46
2022/11/26 09:58:32;;;;;;;;;28.50;28.50;;;;;-147.17;100.00;-15917.19;5040183;28;51592;-48
2022/11/26 10:00:59;;;;;;;;;32.50;30.75;;;;;-147.17;100.00;-15917.19;5047206;28;52812;-46
2022/11/26 10:03:38;;;;;;;;;28.25;26.75;;;;;-147.17;100.00;-15917.19;5047750;28;52345;-48
2022/11/26 10:06:24;;;;;;;;;33.75;28.00;;;;;-147.17;100.00;-15917.19;5041896;28;51327;-47
2022/11/26 10:09:08;;;;;;;;;33.25;30.75;;;;;-147.17;100.00;-15917.19;5047911;28;51212;-45
2022/11/26 10:11:59;;;;;;;;;36.00;28.25;;;;;-147.17;100.00;-15917.19;5048733;28;52043;-47
2022/11/26 10:14:58;;;;;;;;;31.50;29.50;;;;;-147.17;100.00;-15917.19;5022772;28;51797;-47
2022/11/26 10:17:47;;;;;;;;;29.50;27.25;;;;;-147.17;100.00;-15917.19;5026051;28;51138;-53
2022/11/26 10:20:18;;;;;;;;;30.00;26.00;;;;;-147.17;100.00;-15917.19;5048055;28;51162;-46
2022/11/26 10:22:52;;;;;;;;;31.00;29.75;;;;;-147.17;100.00;-15917.19;5032655;28;53035;-45
2022/11/26 10:25:22;;;;;;;;;32.00;27.00;;;;;-147.17;100.00;-15917.19;5047669;28;51086;-47
2022/11/26 10:27:48;;;;;;;;;37.25;33.50;;;;;-147.17;100.00;-15917.19;5030787;28;51144;-46
2022/11/26 10:30:25;;;;;;;;;37.50;32.00;;;;;-147.17;100.00;-15917.19;5047733;28;51227;-45
2022/11/26 10:32:52;;;;;;;;;43.50;37.50;;;;;-147.17;100.00;-15917.19;5048892;28;52135;-44
2022/11/26 10:35:23;;;;;;;;;30.25;27.50;;;;;-147.17;100.00;-15917.19;5050451;28;50910;-47
2022/11/26 10:37:50;;;;;;;;;31.25;29.00;;;;;-147.17;100.00;-15917.19;5041594;28;51091;-45
2022/11/26 10:40:24;;;;;;;;;33.75;29.00;;;;;-147.17;100.00;-15917.19;5043272;28;51131;-44
2022/11/26 10:43:09;;;;;;;;;31.00;27.00;;;;;-147.17;100.00;-15917.19;5041647;28;53049;-48
2022/11/26 10:45:54;;;;;;;;;22.25;20.50;;;;;-147.17;100.00;-15917.19;5033805;28;50986;-46
2022/11/26 10:48:27;;;;;;;;;34.00;29.25;;;;;-147.17;100.00;-15917.19;5052722;28;50938;-48
2022/11/26 10:50:58;;;;;;;;;26.50;23.75;;;;;-147.17;100.00;-15917.19;5046296;28;51067;-46